Time;durP1;ratioP1;P1;durP2;ratioP2;P2;SDS_P1;SDS_P2;PMS_P1;PMS_P2;Temp;Humidity;BMP_temperature;BMP_pressure;BME280_temperature;BME280_humidity;BME280_pressure;Samples;Min_cycle;Max_cycle;Signal;HPM_P1;HPM_P2
2023/01/10 00:00:20;;;;;;;6.07;1.65;;;;;;;;;;5022141;28;20074;-87
2023/01/10 00:02:47;;;;;;;4.80;1.60;;;;;;;;;;4994617;28;20056;-87
2023/01/10 00:05:14;;;;;;;4.05;1.60;;;;;;;;;;4997625;28;20046;-86
2023/01/10 00:07:41;;;;;;;4.22;1.67;;;;;;;;;;4997741;28;20140;-85
2023/01/10 00:10:08;;;;;;;4.18;1.77;;;;;;;;;;4999145;28;20113;-87
2023/01/10 00:15:20;;;;;;;5.00;1.80;;;;;;;;;;5014566;28;20046;-87
2023/01/10 00:17:47;;;;;;;2.97;1.70;;;;;;;;;;5005291;28;20346;-87
2023/01/10 00:20:14;;;;;;;8.93;2.05;;;;;;;;;;5015806;28;20113;-87
2023/01/10 00:22:40;;;;;;;5.95;2.00;;;;;;;;;;5016598;28;20092;-88
2023/01/10 00:25:10;;;;;;;6.63;1.92;;;;;;;;;;4999219;28;20077;-87
2023/01/10 00:27:38;;;;;;;4.20;1.73;;;;;;;;;;5017017;28;20148;-88
2023/01/10 00:30:25;;;;;;;4.63;2.08;;;;;;;;;;5018689;28;20116;-86
2023/01/10 00:32:53;;;;;;;4.43;2.20;;;;;;;;;;5000237;28;20050;-86
2023/01/10 00:35:20;;;;;;;3.22;2.08;;;;;;;;;;5015177;28;20482;-86
2023/01/10 00:37:46;;;;;;;5.15;2.42;;;;;;;;;;5009278;28;20060;-88
2023/01/10 00:40:13;;;;;;;4.18;1.92;;;;;;;;;;5021279;28;20053;-90
2023/01/10 00:45:25;;;;;;;3.40;1.42;;;;;;;;;;5014699;28;20077;-88
2023/01/10 00:47:52;;;;;;;3.97;2.00;;;;;;;;;;4998533;28;20061;-87
2023/01/10 00:50:20;;;;;;;3.08;1.90;;;;;;;;;;4997678;28;20046;-88
2023/01/10 00:52:46;;;;;;;4.25;2.25;;;;;;;;;;4998647;28;20058;-86
2023/01/10 00:55:13;;;;;;;3.72;2.05;;;;;;;;;;5016258;28;20046;-85
2023/01/10 00:57:39;;;;;;;4.07;2.00;;;;;;;;;;5025221;28;20057;-88
2023/01/10 01:00:08;;;;;;;5.82;2.50;;;;;;;;;;4997247;28;20076;-89
2023/01/10 01:02:35;;;;;;;4.63;2.13;;;;;;;;;;4996497;28;20657;-86
2023/01/10 01:05:05;;;;;;;5.72;2.40;;;;;;;;;;5013388;28;20536;-89
2023/01/10 01:07:31;;;;;;;5.13;2.40;;;;;;;;;;5015054;28;20066;-87
2023/01/10 01:12:43;;;;;;;12.00;2.58;;;;;;;;;;5020711;28;20270;-88
2023/01/10 01:15:11;;;;;;;4.72;2.15;;;;;;;;;;5015418;28;20053;-86
2023/01/10 01:17:38;;;;;;;7.72;2.40;;;;;;;;;;5016945;28;20050;-89
2023/01/10 01:20:08;;;;;;;6.72;2.28;;;;;;;;;;5008382;28;20530;-88
2023/01/10 01:22:35;;;;;;;5.60;2.58;;;;;;;;;;4996929;28;20486;-86
2023/01/10 01:25:03;;;;;;;4.95;2.28;;;;;;;;;;5014405;28;20085;-89
2023/01/10 01:27:30;;;;;;;6.65;2.60;;;;;;;;;;5013991;28;20073;-88
2023/01/10 01:29:56;;;;;;;4.43;2.42;;;;;;;;;;4995788;28;20050;-85
2023/01/10 01:32:23;;;;;;;4.10;2.28;;;;;;;;;;4996670;28;20478;-86
2023/01/10 01:34:50;;;;;;;4.65;2.40;;;;;;;;;;5022724;28;20053;-85
2023/01/10 01:37:18;;;;;;;7.60;2.40;;;;;;;;;;4999582;28;20133;-87
2023/01/10 01:39:48;;;;;;;7.60;2.80;;;;;;;;;;5026437;28;20870;-88
2023/01/10 01:42:28;;;;;;;6.55;2.78;;;;;;;;;;5045847;28;20053;-88
2023/01/10 01:45:17;;;;;;;6.18;2.72;;;;;;;;;;5032988;28;20056;-85
2023/01/10 01:47:51;;;;;;;7.60;2.95;;;;;;;;;;5032364;28;20143;-87
2023/01/10 01:50:17;;;;;;;5.70;2.85;;;;;;;;;;5015127;28;20042;-84
2023/01/10 01:52:44;;;;;;;6.10;2.88;;;;;;;;;;5019005;28;20081;-88
2023/01/10 01:55:11;;;;;;;8.90;3.30;;;;;;;;;;5016505;28;20053;-87
2023/01/10 01:57:37;;;;;;;6.82;3.20;;;;;;;;;;5021848;28;20049;-86
2023/01/10 02:00:04;;;;;;;7.00;3.10;;;;;;;;;;5019739;28;20046;-87
2023/01/10 02:02:33;;;;;;;6.15;3.05;;;;;;;;;;5031322;28;20084;-88
2023/01/10 02:05:03;;;;;;;6.70;3.30;;;;;;;;;;5029347;28;20152;-86
2023/01/10 02:07:36;;;;;;;7.93;3.10;;;;;;;;;;5012066;28;20148;-89
2023/01/10 02:10:06;;;;;;;5.70;3.00;;;;;;;;;;4994373;28;20057;-87
2023/01/10 02:12:33;;;;;;;8.57;3.22;;;;;;;;;;5012623;28;20045;-87
2023/01/10 02:15:03;;;;;;;8.98;3.60;;;;;;;;;;4995537;28;20042;-87
2023/01/10 02:17:29;;;;;;;7.20;3.17;;;;;;;;;;5014166;28;20143;-87
2023/01/10 02:19:57;;;;;;;7.80;2.92;;;;;;;;;;5015733;28;20057;-87
2023/01/10 02:22:48;;;;;;;11.43;3.47;;;;;;;;;;5016823;28;20657;-88
2023/01/10 02:25:34;;;;;;;7.38;3.65;;;;;;;;;;5042957;28;20056;-88
2023/01/10 02:28:15;;;;;;;6.70;3.15;;;;;;;;;;5014872;28;20060;-87
2023/01/10 02:30:52;;;;;;;7.03;3.47;;;;;;;;;;5033624;28;20057;-88
2023/01/10 02:33:31;;;;;;;8.45;3.50;;;;;;;;;;5015411;28;20071;-88
2023/01/10 02:35:58;;;;;;;7.93;3.53;;;;;;;;;;5016167;28;20065;-87
2023/01/10 02:38:24;;;;;;;7.90;3.78;;;;;;;;;;5032258;28;20072;-88
2023/01/10 02:40:59;;;;;;;10.25;3.50;;;;;;;;;;5021699;28;20156;-88
2023/01/10 02:43:29;;;;;;;7.30;3.53;;;;;;;;;;5014032;28;20046;-86
2023/01/10 02:46:01;;;;;;;8.40;4.00;;;;;;;;;;5015081;28;20050;-89
2023/01/10 02:48:32;;;;;;;5.97;3.50;;;;;;;;;;5014905;28;20046;-88
2023/01/10 02:51:17;;;;;;;9.85;3.65;;;;;;;;;;4995810;28;20196;-87
2023/01/10 02:53:48;;;;;;;9.13;3.50;;;;;;;;;;5013085;28;20132;-86
2023/01/10 02:56:23;;;;;;;6.97;3.33;;;;;;;;;;5012978;28;20056;-88
2023/01/10 02:59:10;;;;;;;10.50;3.47;;;;;;;;;;4996677;28;20077;-87
2023/01/10 03:01:55;;;;;;;11.38;3.95;;;;;;;;;;5013939;28;20061;-86
2023/01/10 03:04:23;;;;;;;6.30;3.35;;;;;;;;;;4995944;28;20061;-86
2023/01/10 03:06:59;;;;;;;7.47;4.05;;;;;;;;;;5012966;28;20054;-87
2023/01/10 03:09:32;;;;;;;6.03;3.40;;;;;;;;;;4996004;28;20069;-89
2023/01/10 03:12:09;;;;;;;7.53;3.80;;;;;;;;;;5001096;28;20054;-87
2023/01/10 03:14:38;;;;;;;9.10;4.03;;;;;;;;;;5015177;28;20104;-87
2023/01/10 03:17:09;;;;;;;8.20;4.07;;;;;;;;;;5006591;28;20038;-86
2023/01/10 03:19:42;;;;;;;9.10;3.90;;;;;;;;;;5004417;28;20512;-86
2023/01/10 03:22:09;;;;;;;9.05;3.90;;;;;;;;;;4999525;28;20061;-87
2023/01/10 03:24:40;;;;;;;8.50;3.95;;;;;;;;;;4999292;28;20063;-87
2023/01/10 03:27:23;;;;;;;14.32;4.15;;;;;;;;;;5017525;28;20065;-88
2023/01/10 03:29:52;;;;;;;11.57;4.47;;;;;;;;;;4998852;28;20060;-88
2023/01/10 03:32:22;;;;;;;11.15;4.00;;;;;;;;;;5014784;28;20114;-90
2023/01/10 03:34:48;;;;;;;9.48;3.88;;;;;;;;;;5015113;28;20542;-89
2023/01/10 03:37:18;;;;;;;8.90;3.80;;;;;;;;;;5004732;28;20046;-87
2023/01/10 03:39:48;;;;;;;11.40;4.13;;;;;;;;;;5040998;28;20053;-87
2023/01/10 03:42:14;;;;;;;10.48;3.80;;;;;;;;;;5041905;28;20073;-88
2023/01/10 03:44:46;;;;;;;11.13;3.60;;;;;;;;;;5023049;28;20053;-86
2023/01/10 03:47:35;;;;;;;8.48;3.67;;;;;;;;;;5023985;28;20080;-89
2023/01/10 03:50:05;;;;;;;7.13;3.53;;;;;;;;;;5024226;28;20056;-87
2023/01/10 03:52:33;;;;;;;9.60;3.42;;;;;;;;;;5030551;28;20300;-88
2023/01/10 03:55:01;;;;;;;10.73;3.58;;;;;;;;;;5058061;28;20037;-85
2023/01/10 03:57:27;;;;;;;9.95;3.85;;;;;;;;;;5055734;28;20053;-87
2023/01/10 03:59:56;;;;;;;7.72;3.97;;;;;;;;;;5021772;28;20391;-88
2023/01/10 04:02:30;;;;;;;12.05;4.00;;;;;;;;;;5021937;28;20060;-87
2023/01/10 04:04:57;;;;;;;13.10;4.15;;;;;;;;;;5039007;28;20127;-89
2023/01/10 04:07:25;;;;;;;10.60;3.50;;;;;;;;;;5022026;28;20446;-89
2023/01/10 04:09:53;;;;;;;9.35;3.45;;;;;;;;;;5021210;28;20053;-86
2023/01/10 04:12:23;;;;;;;6.97;3.40;;;;;;;;;;5020399;28;20080;-88
2023/01/10 04:14:50;;;;;;;12.07;3.58;;;;;;;;;;5021138;28;20173;-90
2023/01/10 04:17:17;;;;;;;10.32;3.75;;;;;;;;;;5020884;28;20062;-87
2023/01/10 04:19:44;;;;;;;10.63;3.85;;;;;;;;;;5034025;28;20058;-87
2023/01/10 04:22:11;;;;;;;11.23;3.45;;;;;;;;;;5018832;28;20128;-88
2023/01/10 04:24:37;;;;;;;7.78;3.60;;;;;;;;;;5034783;28;20049;-89
2023/01/10 04:27:09;;;;;;;9.68;3.78;;;;;;;;;;5019328;28;20099;-87
2023/01/10 04:29:35;;;;;;;8.48;3.80;;;;;;;;;;5035058;28;20049;-90
2023/01/10 04:32:02;;;;;;;8.50;3.90;;;;;;;;;;5036845;28;20045;-88
2023/01/10 04:34:29;;;;;;;9.55;3.70;;;;;;;;;;5038121;28;20076;-88
2023/01/10 04:36:56;;;;;;;9.27;3.75;;;;;;;;;;5028458;28;20054;-89
2023/01/10 04:39:23;;;;;;;9.68;3.70;;;;;;;;;;5004701;28;20119;-85
2023/01/10 04:41:49;;;;;;;10.68;3.58;;;;;;;;;;5021145;28;20046;-85
2023/01/10 04:44:15;;;;;;;9.82;3.78;;;;;;;;;;5020965;28;20045;-88
2023/01/10 04:46:42;;;;;;;7.97;3.45;;;;;;;;;;5021256;28;20147;-88
2023/01/10 04:49:09;;;;;;;8.80;3.45;;;;;;;;;;5021653;28;20045;-91
2023/01/10 04:51:38;;;;;;;8.18;3.42;;;;;;;;;;5020753;28;20057;-90
2023/01/10 04:54:05;;;;;;;8.65;3.83;;;;;;;;;;5019178;28;20194;-88
2023/01/10 04:56:31;;;;;;;8.23;3.75;;;;;;;;;;5036911;28;20057;-85
2023/01/10 04:58:58;;;;;;;8.95;3.83;;;;;;;;;;5034120;28;20063;-85
2023/01/10 05:01:27;;;;;;;7.43;3.47;;;;;;;;;;5016114;28;20182;-87
2023/01/10 05:03:54;;;;;;;10.68;3.38;;;;;;;;;;5018750;28;20049;-87
2023/01/10 05:06:22;;;;;;;9.65;3.88;;;;;;;;;;5028324;28;20046;-88
2023/01/10 05:08:48;;;;;;;8.65;3.88;;;;;;;;;;5014080;28;20056;-87
2023/01/10 05:11:15;;;;;;;9.13;3.55;;;;;;;;;;5014552;28;20161;-85
2023/01/10 05:13:41;;;;;;;8.35;3.72;;;;;;;;;;5000877;28;20050;-85
2023/01/10 05:16:08;;;;;;;6.57;3.67;;;;;;;;;;4997423;28;20082;-87
2023/01/10 05:18:34;;;;;;;10.73;4.07;;;;;;;;;;5015702;28;20189;-89
2023/01/10 05:21:02;;;;;;;8.05;3.30;;;;;;;;;;5015306;28;20054;-90
2023/01/10 05:23:28;;;;;;;14.70;4.20;;;;;;;;;;4995292;28;20093;-86
2023/01/10 05:25:55;;;;;;;12.55;4.13;;;;;;;;;;5013254;28;20049;-84
2023/01/10 05:28:21;;;;;;;11.85;3.40;;;;;;;;;;5014208;28;20077;-88
2023/01/10 05:30:48;;;;;;;10.18;3.72;;;;;;;;;;4997912;28;20153;-85
2023/01/10 05:33:14;;;;;;;9.73;3.65;;;;;;;;;;5007272;28;20075;-87
2023/01/10 05:35:41;;;;;;;9.50;4.20;;;;;;;;;;5022215;28;20556;-90
2023/01/10 05:38:07;;;;;;;9.93;3.97;;;;;;;;;;5019130;28;20053;-90
2023/01/10 05:40:34;;;;;;;8.68;4.30;;;;;;;;;;5034688;28;20309;-86
2023/01/10 05:43:00;;;;;;;10.55;4.60;;;;;;;;;;5034267;28;20500;-88
2023/01/10 05:45:26;;;;;;;13.52;4.15;;;;;;;;;;5016435;28;20053;-86
2023/01/10 05:47:53;;;;;;;13.02;4.32;;;;;;;;;;5014913;28;20053;-86
2023/01/10 05:50:19;;;;;;;13.60;4.60;;;;;;;;;;5015150;28;20080;-87
2023/01/10 05:52:46;;;;;;;9.77;4.05;;;;;;;;;;5032654;28;20045;-85
2023/01/10 05:55:12;;;;;;;11.25;4.53;;;;;;;;;;5007052;28;20060;-87
2023/01/10 05:57:39;;;;;;;15.85;4.57;;;;;;;;;;5005347;28;20045;-85
2023/01/10 06:00:05;;;;;;;11.68;5.00;;;;;;;;;;5018869;28;20049;-88
2023/01/10 06:02:32;;;;;;;9.38;4.80;;;;;;;;;;5010393;28;20116;-86
2023/01/10 06:04:59;;;;;;;9.70;5.00;;;;;;;;;;5010770;28;20050;-87
2023/01/10 06:07:25;;;;;;;12.55;5.05;;;;;;;;;;5011683;28;20049;-86
2023/01/10 06:09:51;;;;;;;18.75;5.72;;;;;;;;;;5014265;28;20513;-84
2023/01/10 06:12:18;;;;;;;12.15;5.32;;;;;;;;;;5006453;28;20397;-83
2023/01/10 06:14:44;;;;;;;12.52;5.03;;;;;;;;;;5031840;28;20053;-85
2023/01/10 06:17:11;;;;;;;10.32;5.07;;;;;;;;;;5031379;28;20048;-84
2023/01/10 06:19:37;;;;;;;13.52;5.38;;;;;;;;;;5016296;28;20054;-83
2023/01/10 06:22:04;;;;;;;11.30;5.50;;;;;;;;;;5039082;28;20064;-84
2023/01/10 06:24:30;;;;;;;9.93;5.25;;;;;;;;;;5030946;28;20066;-84
2023/01/10 06:26:56;;;;;;;11.65;5.20;;;;;;;;;;5032104;28;20049;-86
2023/01/10 06:29:23;;;;;;;11.48;4.80;;;;;;;;;;5030506;28;20050;-86
2023/01/10 06:31:49;;;;;;;13.98;5.18;;;;;;;;;;5014681;28;20394;-88
2023/01/10 06:34:16;;;;;;;9.38;4.85;;;;;;;;;;5014216;28;20057;-85
2023/01/10 06:36:42;;;;;;;9.02;4.80;;;;;;;;;;5030469;28;20061;-85
2023/01/10 06:39:08;;;;;;;14.93;5.22;;;;;;;;;;5005337;28;20121;-86
2023/01/10 06:41:35;;;;;;;12.65;4.65;;;;;;;;;;5015759;28;20507;-86
2023/01/10 06:44:01;;;;;;;11.43;5.03;;;;;;;;;;5032477;28;20132;-84
2023/01/10 06:46:28;;;;;;;10.80;5.32;;;;;;;;;;5033290;28;20045;-84
2023/01/10 06:48:54;;;;;;;10.93;5.20;;;;;;;;;;5034444;28;20064;-85
2023/01/10 06:51:20;;;;;;;15.02;5.43;;;;;;;;;;5016952;28;20049;-85
2023/01/10 06:53:47;;;;;;;10.73;4.90;;;;;;;;;;5016090;28;20057;-84
2023/01/10 06:56:13;;;;;;;12.60;5.18;;;;;;;;;;5033950;28;20049;-85
2023/01/10 06:58:40;;;;;;;12.73;5.10;;;;;;;;;;5016355;28;20053;-85
2023/01/10 07:01:11;;;;;;;11.93;5.05;;;;;;;;;;5015314;28;20061;-85
2023/01/10 07:03:39;;;;;;;12.68;4.97;;;;;;;;;;5016112;28;20329;-88
2023/01/10 07:06:09;;;;;;;13.30;4.93;;;;;;;;;;5017311;28;20060;-86
2023/01/10 07:08:36;;;;;;;13.68;5.22;;;;;;;;;;5038769;28;20045;-85
2023/01/10 07:11:03;;;;;;;14.13;4.93;;;;;;;;;;5014242;28;20498;-86
2023/01/10 07:13:29;;;;;;;12.15;4.68;;;;;;;;;;5016317;28;20054;-85
2023/01/10 07:16:06;;;;;;;9.95;4.82;;;;;;;;;;5019553;28;20052;-86
2023/01/10 07:18:33;;;;;;;9.93;4.80;;;;;;;;;;5021779;28;20053;-86
2023/01/10 07:21:00;;;;;;;13.55;4.93;;;;;;;;;;5019219;28;20426;-86
2023/01/10 07:23:26;;;;;;;19.73;5.55;;;;;;;;;;5037879;28;20050;-82
2023/01/10 07:25:52;;;;;;;17.45;5.20;;;;;;;;;;5020820;28;20391;-86
2023/01/10 07:28:19;;;;;;;13.20;4.93;;;;;;;;;;5039886;28;20053;-84
2023/01/10 07:30:45;;;;;;;16.48;4.80;;;;;;;;;;5040004;28;20060;-86
2023/01/10 07:33:12;;;;;;;10.80;4.68;;;;;;;;;;5018872;28;20049;-87
2023/01/10 07:35:38;;;;;;;12.60;4.63;;;;;;;;;;5038341;28;20050;-86
2023/01/10 07:38:04;;;;;;;12.40;4.60;;;;;;;;;;5034416;28;20056;-85
2023/01/10 07:40:31;;;;;;;9.32;4.55;;;;;;;;;;5009523;28;20058;-85
2023/01/10 07:42:58;;;;;;;10.50;4.45;;;;;;;;;;5002035;28;20050;-85
2023/01/10 07:45:28;;;;;;;17.63;6.07;;;;;;;;;;5018605;28;20053;-87
2023/01/10 07:47:58;;;;;;;10.45;3.60;;;;;;;;;;5002196;28;20053;-85
2023/01/10 07:50:25;;;;;;;15.23;4.05;;;;;;;;;;5018453;28;20054;-86
2023/01/10 07:52:52;;;;;;;11.02;3.85;;;;;;;;;;5018235;28;20081;-85
2023/01/10 07:55:18;;;;;;;9.60;4.10;;;;;;;;;;5005429;28;20056;-86
2023/01/10 07:57:45;;;;;;;11.18;4.22;;;;;;;;;;4998789;28;20046;-86
2023/01/10 08:00:11;;;;;;;11.43;4.60;;;;;;;;;;5015631;28;20049;-87
2023/01/10 08:02:38;;;;;;;9.68;3.97;;;;;;;;;;4998965;28;20057;-84
2023/01/10 08:05:05;;;;;;;6.88;3.63;;;;;;;;;;5016180;28;20046;-87
2023/01/10 08:07:31;;;;;;;10.10;4.05;;;;;;;;;;4998962;28;20054;-86
2023/01/10 08:09:57;;;;;;;10.38;3.88;;;;;;;;;;4998629;28;20137;-85
2023/01/10 08:12:24;;;;;;;8.60;3.85;;;;;;;;;;4999393;28;20061;-87
2023/01/10 08:14:50;;;;;;;13.95;4.15;;;;;;;;;;4998847;28;20054;-85
2023/01/10 08:17:17;;;;;;;12.70;4.25;;;;;;;;;;4998871;28;20422;-86
2023/01/10 08:19:44;;;;;;;11.80;4.32;;;;;;;;;;4994892;28;20045;-87
2023/01/10 08:22:11;;;;;;;12.70;4.32;;;;;;;;;;4994927;28;20062;-85
2023/01/10 08:24:37;;;;;;;10.35;4.47;;;;;;;;;;4993714;28;20080;-84
2023/01/10 08:27:04;;;;;;;10.13;4.80;;;;;;;;;;5014985;28;20046;-83
2023/01/10 08:29:30;;;;;;;18.08;5.07;;;;;;;;;;5013790;28;20065;-85
2023/01/10 08:31:57;;;;;;;12.98;5.15;;;;;;;;;;5014892;28;20049;-84
2023/01/10 08:34:23;;;;;;;12.02;5.30;;;;;;;;;;5015655;28;20101;-80
2023/01/10 08:36:51;;;;;;;13.77;5.15;;;;;;;;;;5000806;28;20057;-86
2023/01/10 08:39:19;;;;;;;12.00;5.15;;;;;;;;;;5028268;28;20111;-86
2023/01/10 08:41:46;;;;;;;15.80;5.47;;;;;;;;;;5037571;28;20437;-85
2023/01/10 08:44:14;;;;;;;13.65;5.38;;;;;;;;;;5036804;28;20632;-84
2023/01/10 08:46:41;;;;;;;11.43;4.90;;;;;;;;;;5036811;28;20140;-85
2023/01/10 08:49:07;;;;;;;12.95;5.00;;;;;;;;;;5019696;28;20076;-83
2023/01/10 08:51:34;;;;;;;21.08;5.53;;;;;;;;;;5017922;28;20045;-82
2023/01/10 08:54:00;;;;;;;13.68;4.95;;;;;;;;;;5036304;28;20050;-83
2023/01/10 08:56:27;;;;;;;10.80;4.85;;;;;;;;;;5019098;28;20410;-86
2023/01/10 08:58:54;;;;;;;11.10;4.85;;;;;;;;;;5037957;28;20049;-84
2023/01/10 09:01:20;;;;;;;21.60;5.43;;;;;;;;;;5018619;28;20515;-85
2023/01/10 09:03:47;;;;;;;15.98;4.90;;;;;;;;;;5017588;28;20060;-86
2023/01/10 09:06:13;;;;;;;18.10;5.20;;;;;;;;;;5036116;28;20057;-87
2023/01/10 09:08:39;;;;;;;19.25;5.00;;;;;;;;;;5018308;28;20205;-87
2023/01/10 09:11:06;;;;;;;16.75;4.90;;;;;;;;;;5036193;28;20128;-87
2023/01/10 09:13:32;;;;;;;17.10;4.65;;;;;;;;;;5038837;28;20061;-86
2023/01/10 09:15:59;;;;;;;18.10;4.53;;;;;;;;;;5020240;28;20049;-87
2023/01/10 09:18:25;;;;;;;17.40;4.25;;;;;;;;;;5019364;28;20042;-84
2023/01/10 09:20:52;;;;;;;15.98;4.28;;;;;;;;;;5019383;28;20120;-84
2023/01/10 09:23:20;;;;;;;15.70;4.72;;;;;;;;;;5036481;28;20145;-86
2023/01/10 09:25:47;;;;;;;12.95;3.95;;;;;;;;;;5020633;28;20050;-84
2023/01/10 09:28:14;;;;;;;10.48;3.92;;;;;;;;;;5022329;28;20127;-85
2023/01/10 09:30:40;;;;;;;15.55;3.33;;;;;;;;;;5034260;28;20064;-85
2023/01/10 09:33:07;;;;;;;10.13;3.47;;;;;;;;;;5018053;28;20056;-85
2023/01/10 09:35:34;;;;;;;11.60;3.65;;;;;;;;;;5034658;28;20056;-85
2023/01/10 09:38:01;;;;;;;13.00;3.67;;;;;;;;;;5009062;28;20052;-85
2023/01/10 09:40:47;;;;;;;9.82;2.90;;;;;;;;;;5006271;28;20056;-85
2023/01/10 09:43:22;;;;;;;12.25;3.55;;;;;;;;;;5015147;28;20577;-87
2023/01/10 09:45:52;;;;;;;18.50;3.22;;;;;;;;;;5014915;28;20617;-85
2023/01/10 09:48:27;;;;;;;11.13;2.95;;;;;;;;;;5016596;28;20061;-86
2023/01/10 09:51:09;;;;;;;12.93;3.55;;;;;;;;;;4996916;28;20057;-85
2023/01/10 09:53:38;;;;;;;13.05;3.22;;;;;;;;;;5014908;28;20414;-84
2023/01/10 09:56:06;;;;;;;9.93;3.70;;;;;;;;;;5014216;28;20517;-87
2023/01/10 09:58:33;;;;;;;9.68;3.17;;;;;;;;;;4997568;28;20049;-86
2023/01/10 10:01:15;;;;;;;12.30;2.63;;;;;;;;;;4998533;28;20456;-87
2023/01/10 10:03:47;;;;;;;14.85;2.95;;;;;;;;;;4996195;28;20064;-87
2023/01/10 10:06:14;;;;;;;13.55;2.63;;;;;;;;;;4996816;28;20046;-83
2023/01/10 10:08:42;;;;;;;11.35;2.70;;;;;;;;;;4997904;28;20089;-87
2023/01/10 10:11:23;;;;;;;11.30;2.83;;;;;;;;;;4996967;28;20042;-88
2023/01/10 10:14:02;;;;;;;13.52;2.78;;;;;;;;;;5015247;28;20597;-85
2023/01/10 10:16:38;;;;;;;11.95;2.60;;;;;;;;;;5016127;28;20052;-87
2023/01/10 10:19:13;;;;;;;12.20;2.75;;;;;;;;;;4998308;28;20430;-86
2023/01/10 10:21:46;;;;;;;11.60;3.03;;;;;;;;;;4996398;28;20068;-87
2023/01/10 10:24:18;;;;;;;6.97;2.53;;;;;;;;;;4996588;28;20054;-86
2023/01/10 10:26:45;;;;;;;9.20;2.42;;;;;;;;;;4997347;28;20046;-85
2023/01/10 10:29:16;;;;;;;12.27;2.75;;;;;;;;;;4997925;28;20057;-86
2023/01/10 10:31:49;;;;;;;7.80;2.25;;;;;;;;;;5015762;28;20819;-85
2023/01/10 10:34:36;;;;;;;14.55;2.45;;;;;;;;;;5014494;28;20050;-84
2023/01/10 10:37:16;;;;;;;9.90;2.38;;;;;;;;;;5010324;28;20123;-84
2023/01/10 10:39:56;;;;;;;11.90;2.20;;;;;;;;;;5015828;28;20045;-83
2023/01/10 10:42:27;;;;;;;12.13;2.25;;;;;;;;;;5015448;28;20053;-84
2023/01/10 10:45:04;;;;;;;9.65;2.20;;;;;;;;;;5035981;28;20059;-82
2023/01/10 10:47:32;;;;;;;12.05;2.50;;;;;;;;;;5018621;28;20206;-85
2023/01/10 10:50:07;;;;;;;12.57;2.00;;;;;;;;;;5035377;28;20049;-86
2023/01/10 10:52:34;;;;;;;8.88;2.28;;;;;;;;;;5036023;28;20057;-85
2023/01/10 10:55:03;;;;;;;6.53;1.98;;;;;;;;;;5037169;28;20053;-85
2023/01/10 10:57:30;;;;;;;11.30;2.13;;;;;;;;;;5037111;28;20124;-85
2023/01/10 10:59:58;;;;;;;10.82;2.28;;;;;;;;;;5041114;28;20060;-82
2023/01/10 11:02:27;;;;;;;10.45;2.35;;;;;;;;;;5017557;28;20124;-87
2023/01/10 11:04:55;;;;;;;10.95;2.20;;;;;;;;;;5035042;28;20557;-85
2023/01/10 11:07:23;;;;;;;10.65;2.30;;;;;;;;;;5037921;28;20409;-85
2023/01/10 11:12:23;;;;;;;9.05;2.70;;;;;;;;;;5039961;28;20041;-82
2023/01/10 11:14:50;;;;;;;9.48;2.20;;;;;;;;;;5038663;28;20048;-85
2023/01/10 11:17:18;;;;;;;9.75;2.05;;;;;;;;;;5026755;28;20049;-83
2023/01/10 11:19:57;;;;;;;5.95;1.98;;;;;;;;;;5047678;28;20056;-83
2023/01/10 11:22:24;;;;;;;6.95;1.85;;;;;;;;;;5030357;28;20057;-86
2023/01/10 11:24:55;;;;;;;7.15;2.25;;;;;;;;;;5020981;28;20050;-84
2023/01/10 11:27:23;;;;;;;6.72;1.50;;;;;;;;;;5017303;28;20052;-85
2023/01/10 11:29:51;;;;;;;9.85;1.60;;;;;;;;;;5036282;28;20060;-85
2023/01/10 11:32:19;;;;;;;6.63;1.52;;;;;;;;;;5037344;28;20045;-80
2023/01/10 11:34:49;;;;;;;6.28;1.48;;;;;;;;;;5020948;28;20057;-86
2023/01/10 11:37:15;;;;;;;5.88;1.48;;;;;;;;;;5013149;28;20057;-84
2023/01/10 11:39:41;;;;;;;9.55;1.63;;;;;;;;;;5035149;28;20061;-87
2023/01/10 11:42:23;;;;;;;7.40;1.48;;;;;;;;;;5018395;28;20045;-88
2023/01/10 11:44:50;;;;;;;10.45;1.80;;;;;;;;;;5023922;28;20050;-85
2023/01/10 11:47:19;;;;;;;6.38;1.20;;;;;;;;;;5028838;28;20049;-85
2023/01/10 11:49:47;;;;;;;5.40;1.20;;;;;;;;;;5023775;28;20171;-87
2023/01/10 11:52:25;;;;;;;4.68;1.13;;;;;;;;;;5021846;28;20050;-86
2023/01/10 11:54:55;;;;;;;4.60;1.20;;;;;;;;;;5019354;28;20049;-85
2023/01/10 11:57:25;;;;;;;6.05;1.20;;;;;;;;;;5019895;28;20065;-84
2023/01/10 11:59:57;;;;;;;7.50;1.33;;;;;;;;;;5038802;28;20193;-85
2023/01/10 12:02:25;;;;;;;7.15;1.20;;;;;;;;;;5024815;28;20076;-84
2023/01/10 12:04:53;;;;;;;3.95;0.88;;;;;;;;;;5023584;28;20064;-84
2023/01/10 12:07:21;;;;;;;5.40;1.15;;;;;;;;;;5040821;28;20049;-87
2023/01/10 12:09:55;;;;;;;5.68;1.25;;;;;;;;;;5040725;28;20171;-84
2023/01/10 12:12:25;;;;;;;6.70;1.35;;;;;;;;;;5041422;28;20059;-86
2023/01/10 12:14:53;;;;;;;9.30;1.50;;;;;;;;;;5029140;28;20113;-87
2023/01/10 12:17:21;;;;;;;12.15;1.30;;;;;;;;;;5024141;28;20053;-84
2023/01/10 12:19:51;;;;;;;8.15;1.30;;;;;;;;;;5022025;28;20050;-82
2023/01/10 12:22:19;;;;;;;4.13;1.10;;;;;;;;;;5022849;28;20056;-87
2023/01/10 12:24:47;;;;;;;6.10;1.30;;;;;;;;;;5040817;28;20049;-87
2023/01/10 12:27:14;;;;;;;8.35;1.55;;;;;;;;;;5024377;28;20080;-87
2023/01/10 12:29:56;;;;;;;6.97;1.30;;;;;;;;;;5022988;28;20045;-87
2023/01/10 12:32:25;;;;;;;6.47;1.30;;;;;;;;;;5049102;28;20041;-86
2023/01/10 12:35:06;;;;;;;7.85;1.27;;;;;;;;;;5023267;28;20053;-85
2023/01/10 12:37:41;;;;;;;9.20;1.30;;;;;;;;;;5019261;28;20133;-87
2023/01/10 12:40:10;;;;;;;5.90;1.23;;;;;;;;;;5014234;28;20046;-87
2023/01/10 12:45:37;;;;;;;9.38;1.55;;;;;;;;;;5038727;28;20049;-86
2023/01/10 12:48:18;;;;;;;5.75;1.20;;;;;;;;;;5041015;28;20516;-86
2023/01/10 12:50:52;;;;;;;5.65;1.40;;;;;;;;;;5021464;28;20045;-86
2023/01/10 12:53:22;;;;;;;6.03;1.38;;;;;;;;;;5039801;28;20135;-88
2023/01/10 12:55:51;;;;;;;8.60;1.40;;;;;;;;;;5022383;28;20049;-86
2023/01/10 12:58:17;;;;;;;6.80;1.50;;;;;;;;;;5040317;28;20715;-87
2023/01/10 13:00:45;;;;;;;4.38;1.23;;;;;;;;;;5038190;28;20045;-86
2023/01/10 13:03:21;;;;;;;6.07;1.40;;;;;;;;;;5037251;28;20053;-87
2023/01/10 13:05:48;;;;;;;9.32;1.67;;;;;;;;;;5018648;28;20347;-86
2023/01/10 13:08:20;;;;;;;5.80;1.08;;;;;;;;;;5038286;28;20108;-86
2023/01/10 13:10:47;;;;;;;8.35;1.40;;;;;;;;;;5022917;28;20465;-87
2023/01/10 13:13:34;;;;;;;6.78;1.38;;;;;;;;;;5048515;28;20051;-86
2023/01/10 13:16:03;;;;;;;5.72;1.35;;;;;;;;;;5020790;28;20083;-86
2023/01/10 13:18:30;;;;;;;8.55;1.60;;;;;;;;;;5039519;28;20041;-85
2023/01/10 13:21:12;;;;;;;8.30;1.20;;;;;;;;;;5039198;28;20538;-86
2023/01/10 13:23:59;;;;;;;6.57;1.10;;;;;;;;;;5036356;28;20045;-86
2023/01/10 13:26:25;;;;;;;5.28;1.27;;;;;;;;;;5037703;28;20053;-88
2023/01/10 13:28:57;;;;;;;3.70;1.10;;;;;;;;;;5020668;28;20522;-86
2023/01/10 13:31:25;;;;;;;5.00;1.17;;;;;;;;;;5037396;28;20060;-87
2023/01/10 13:33:54;;;;;;;9.30;1.65;;;;;;;;;;5037506;28;20057;-87
2023/01/10 13:36:23;;;;;;;5.88;1.48;;;;;;;;;;5038005;28;20111;-86
2023/01/10 13:38:57;;;;;;;5.72;1.52;;;;;;;;;;5026691;28;20098;-88
2023/01/10 13:44:13;;;;;;;7.20;1.30;;;;;;;;;;5036818;28;20132;-88
2023/01/10 13:46:44;;;;;;;5.88;1.40;;;;;;;;;;5021168;28;20301;-87
2023/01/10 13:49:11;;;;;;;15.10;1.35;;;;;;;;;;5020543;28;20060;-87
2023/01/10 13:51:38;;;;;;;7.78;1.30;;;;;;;;;;5025057;28;20033;-86
2023/01/10 13:54:16;;;;;;;4.90;1.20;;;;;;;;;;5019158;28;20140;-86
2023/01/10 13:56:43;;;;;;;3.50;1.30;;;;;;;;;;5035945;28;20061;-87
2023/01/10 14:04:52;;;;;;;5.57;1.30;;;;;;;;;;5021425;28;20866;-90
2023/01/10 14:07:30;;;;;;;4.05;1.10;;;;;;;;;;5013099;28;20056;-89
2023/01/10 14:10:04;;;;;;;3.22;0.98;;;;;;;;;;5013319;28;20109;-88
2023/01/10 14:12:38;;;;;;;11.20;1.50;;;;;;;;;;5020460;28;20097;-88
2023/01/10 14:15:31;;;;;;;6.05;1.20;;;;;;;;;;5010061;28;20060;-89
2023/01/10 14:18:09;;;;;;;8.23;1.60;;;;;;;;;;5020654;28;20052;-89
2023/01/10 14:20:36;;;;;;;7.30;1.60;;;;;;;;;;5012859;28;20394;-87
2023/01/10 14:23:19;;;;;;;4.72;1.40;;;;;;;;;;5014137;28;20049;-86
2023/01/10 14:25:51;;;;;;;7.13;1.45;;;;;;;;;;5024496;28;20045;-88
2023/01/10 14:28:22;;;;;;;7.30;1.40;;;;;;;;;;5019046;28;20050;-85
2023/01/10 14:31:00;;;;;;;7.07;1.77;;;;;;;;;;5027400;28;20065;-85
2023/01/10 14:33:29;;;;;;;7.53;1.40;;;;;;;;;;5006096;28;20046;-87
2023/01/10 14:35:58;;;;;;;5.43;1.58;;;;;;;;;;5018423;28;20053;-87
2023/01/10 14:38:26;;;;;;;7.82;1.70;;;;;;;;;;5010147;28;20046;-86
2023/01/10 14:40:57;;;;;;;7.55;1.30;;;;;;;;;;5030747;28;20055;-86
2023/01/10 14:43:26;;;;;;;5.20;1.77;;;;;;;;;;5016734;28;20053;-85
2023/01/10 14:45:58;;;;;;;6.57;1.73;;;;;;;;;;5035307;28;20049;-88
2023/01/10 14:48:27;;;;;;;6.30;1.63;;;;;;;;;;5019656;28;20053;-86
2023/01/10 14:51:25;;;;;;;5.55;1.63;;;;;;;;;;5019497;28;20045;-89
2023/01/10 14:54:01;;;;;;;8.82;2.28;;;;;;;;;;5022021;28;20072;-87
2023/01/10 14:56:56;;;;;;;5.43;1.58;;;;;;;;;;5021582;28;20053;-87
2023/01/10 14:59:30;;;;;;;5.95;2.00;;;;;;;;;;5035686;28;20052;-87
2023/01/10 15:01:57;;;;;;;7.55;1.70;;;;;;;;;;5041587;28;20053;-89
2023/01/10 15:04:28;;;;;;;7.50;2.03;;;;;;;;;;5020943;28;20064;-87
2023/01/10 15:06:56;;;;;;;11.85;2.00;;;;;;;;;;5023341;28;20071;-87
2023/01/10 15:09:30;;;;;;;5.33;2.20;;;;;;;;;;5008313;28;20392;-86
2023/01/10 15:11:58;;;;;;;5.10;1.95;;;;;;;;;;5018806;28;20331;-88
2023/01/10 15:14:27;;;;;;;3.75;1.80;;;;;;;;;;5026605;28;20045;-85